Impacts TAF Board INFO
FOR SITUATIONAL AWARENESS. NOT TO BE USED FOR FLIGHT PLANNING PURPOSES.
IDs:

KEWR - Newark Intl, NJ, US

Issued at 0208 UTC 18 Jan 2018
Updated at 0419 UTC 18 Jan 2018
Potential Impact None Slight Moderate High
Time<<19/05Z 19/06Z 19/07Z 19/08Z 19/09Z 19/10Z 19/11Z 19/12Z 19/13Z 19/14Z 19/15Z 19/16Z 19/17Z
Type PRVL
VIS >6
CIG --
Cover SKC
FltCat VFR
WX --
WDir 310
WSpd 10
WGst --

Raw TAF
KEWR 180208Z 1802/1906 32012G18KT P6SM SCT025 SCT040 SCT250
  TEMPO 1802/1804 BKN025
  FM180500 31010KT P6SM SKC
  FM181500 29014G20KT P6SM SKC
  FM181800 31015G22KT P6SM FEW030
  FM182300 31010KT P6SM SKC


METAR Board
Radar Display
Forecast Discussion

FOR SITUATIONAL AWARENESS. NOT TO BE USED FOR FLIGHT PLANNING PURPOSES.